Stone Cabin, Nevada Weather observations

Data are for observation ending at time listed.
 Day   Time    Ave.   Ave.  Ave.  Vector   Max.   Stn.    Total    Solar   Ave.  
  of    of     Air    Rel.  Wind   Wind    Wind   Baro.  Precip.   Rad.    Soil  
Year   Day     Temp.  Hum.  Speed  Dir.    Gust   Pres.                    Temp. 
2014   (PST)    F      %     mph   deg.    mph     mb.     in.     W/m2     F   
------------------------------------------------------------------------------
 113    2:00   32.4    50    0.8   359      2.3    817     0.00       0    47.7
 113    3:00   32.3    52    0.8   350      2.3    818     0.00       0    47.5
 113    4:00   32.0    52    1.1   346      2.3    818     0.00       0    47.3
 113    5:00   29.8    56    1.6   345      3.4    818     0.00       0    47.0
 113    6:00   27.6    58    0.9   325      3.4    819     0.00      20    46.5
 113    7:00   36.3    46    2.7   358      6.2    819     0.00     200    46.1
 113    8:00   41.8    35    3.1     8      8.0    820     0.00     484    46.5
 113    9:00   45.2    28    2.4   345      7.7    816     0.00     688    48.0
 113   10:00   48.0    26    2.7   358     10.6    816     0.00     854    50.5
 113   11:00   49.7    24    3.2   292     10.2    811     0.00     965    53.8
 113   12:00   52.1    22    3.5   241      9.2    816     0.00    1010    57.1
 113   13:00   54.6    20    3.2    68      9.3    815     0.00     987    58.7
 113   14:00   57.3    17    3.7   180     11.0    820     0.00     898    57.7
 113   15:00   59.0    16    3.3   143      9.4    819     0.00     755    58.0
 113   16:00   60.2    15    2.7   156      6.7    817     0.00     527    57.5
 113   17:00   59.4    13    4.1   252     17.0    819     0.00     316    56.7
 113   18:00   57.8    14    6.8   282     12.8    818     0.00     138    55.9
 113   19:00   52.9    14    4.2   270     12.1    816     0.00      11    55.0
 113   20:00   47.3    17    2.9   275      7.3    816     0.00       0    53.7
 113   21:00   44.6    18    3.1   290      7.3    816     0.00       0    52.4
 113   22:00   43.0    20    2.4   302      6.6    817     0.00       0    51.3
 113   23:00   37.9    25    1.6   310      4.8    816     0.00       0    50.4
 114    0:00   31.7    32    1.7   312      4.5    818     0.00       0    49.6
 114    1:00   32.2    32    1.8   348      4.3    817     0.00       0    48.8

Return to Stone Cabin, Nevada graphs page.


Western Regional Climate Center,wrcc@dri.edu